Latest Weather Observations for Rockhampton

IDQ60801

Issued at 12:05 pm EST Saturday 19 April 2014 (issued every 30 minutes, with the page automatically refreshed every 10 minutes)

About weather observations | Map of weather stations | Latest weather observations for QLD | Other Formats
Station Details ID: 039083 Name: ROCKHAMPTON AERO Lat: -23.38 Lon: 150.48 Height: 10.4 m
Data from the previous 72 hours. | See also: Recent months at Rockhampton
Date/Time
EST
Temp
°C
App
Temp
°C
Dew
Point
Rel
Hum
%
Delta-T
°C
Wind Press
QNH
hPa
Press
MSL
hPa
Rain
since 9 am
mm
Dir
 
Spd
km/h
Gust
km/h
Spd
kts
Gust
kts
19/12:00pm 27.8 28.3 15.5 47 7.5 WSW 7 11 4 6 1015.7 1015.6 0.0
19/11:30am 26.8 26.7 15.0 48 7.1 SE 9 15 5 8 1016.2 - 0.0
19/11:00am 26.3 27.2 16.0 53 6.3 SSE 6 15 3 8 1016.8 - 0.0
19/10:30am 25.5 27.3 18.2 64 4.6 WSW 6 11 3 6 1017.2 - 0.0
19/10:00am 24.9 27.0 19.3 71 3.6 SSW 7 11 4 6 1017.4 - 0.0
19/09:30am 23.7 25.9 19.3 76 2.8 WSW 6 7 3 4 1017.6 - 0.0
19/09:00am 22.9 25.3 18.9 78 2.5 W 4 7 2 4 1017.7 1017.6 0.0
19/08:30am 22.2 25.2 18.4 79 2.4 CALM 0 6 0 3 1017.7 - 0.0
19/08:00am 21.1 23.9 17.9 82 2.0 WSW 0 0 0 0 1017.6 - 0.0
19/07:30am 19.3 21.3 15.9 81 2.0 CALM 0 0 0 0 1017.4 - 0.0
19/07:00am 17.8 19.8 15.9 89 1.1 CALM 0 0 0 0 1017.3 - 0.0
19/06:30am 16.7 18.2 14.6 87 1.2 CALM 0 0 0 0 1017.0 - 0.0
19/06:00am 16.6 18.1 14.7 88 1.1 CALM 0 0 0 0 1016.8 1016.7 0.0
19/05:30am 16.7 17.7 15.3 91 0.8 SW 4 7 2 4 1016.5 - 0.0
19/05:00am 16.7 18.8 16.2 97 0.3 CALM 0 0 0 0 1016.3 - 0.0
19/04:30am 17.3 19.4 16.3 94 0.6 CALM 0 0 0 0 1016.3 - 0.0
19/04:00am 17.4 18.3 16.0 91 0.8 SSW 6 7 3 4 1016.2 - 0.0
19/03:30am 17.7 19.9 16.4 92 0.8 CALM 0 0 0 0 1016.2 - 0.0
19/03:00am 18.0 20.0 16.1 89 1.1 CALM 0 0 0 0 1016.2 1016.1 0.0
19/02:30am 18.1 20.1 16.1 88 1.2 CALM 0 0 0 0 1016.2 - 0.0
19/02:00am 18.3 19.2 16.5 89 1.1 SW 7 7 4 4 1016.2 - 0.0
19/01:30am 18.2 19.4 16.9 92 0.8 SW 6 9 3 5 1016.3 - 0.0
19/01:00am 19.0 20.7 18.4 96 0.4 SSW 7 7 4 4 1016.3 - 0.0
19/12:30am 19.1 22.1 18.5 96 0.4 CALM 0 0 0 0 1016.4 - 0.0
19/12:00am 19.5 22.6 18.7 95 0.5 NW 0 0 0 0 1016.5 1016.4 0.0
 
Date/Time
EST
Temp
°C
App
Temp
°C
Dew
Point
Rel
Hum
%
Delta-T
°C
Wind Press
QNH
hPa
Press
MSL
hPa
Rain
since 9 am
mm
Dir
 
Spd
km/h
Gust
km/h
Spd
kts
Gust
kts
18/11:30pm 20.0 23.2 18.9 93 0.7 CALM 0 0 0 0 1016.6 - 0.0
18/11:00pm 20.3 23.5 18.9 92 0.9 CALM 0 0 0 0 1016.4 - 0.0
18/10:30pm 20.4 22.9 19.1 92 0.8 NNE 4 7 2 4 1016.5 - 0.0
18/10:00pm 20.5 22.5 19.1 92 0.9 NNE 7 9 4 5 1016.5 - 0.0
18/09:30pm 20.9 22.8 19.0 89 1.2 N 7 7 4 4 1016.5 - 0.0
18/09:00pm 21.9 23.9 19.1 84 1.8 NNE 7 11 4 6 1016.4 1016.3 0.0
18/08:30pm 23.0 25.9 19.1 78 2.5 N 2 9 1 5 1016.3 - 0.0
18/08:00pm 22.4 25.5 18.6 79 2.4 CALM 0 0 0 0 1016.1 - 0.0
18/07:30pm 22.9 24.3 18.6 77 2.7 N 9 13 5 7 1015.8 - 0.0
18/07:00pm 21.9 23.9 17.0 73 3.0 S 2 9 1 5 1015.3 - 0.0
18/06:30pm 25.5 25.8 14.4 50 6.6 SSW 6 9 3 5 1014.8 - 0.0
18/06:00pm 26.5 26.2 14.5 47 7.2 SSE 9 11 5 6 1014.5 1014.4 0.0
18/05:30pm 27.3 26.5 13.0 41 8.4 S 9 11 5 6 1014.2 - 0.0
18/02:30pm 29.2 28.9 15.5 43 8.4 SW 11 17 6 9 1013.1 - 0.0
18/02:00pm 29.0 29.2 15.7 44 8.2 SSW 9 15 5 8 1013.4 - 0.0
18/01:30pm 28.2 28.1 15.9 47 7.6 W 11 19 6 10 1013.8 - 0.0
18/01:00pm 28.4 29.0 16.7 49 7.3 SW 9 17 5 9 1014.1 - 0.0
18/12:30pm 28.6 29.6 17.7 51 6.9 WNW 9 17 5 9 1014.5 - 0.0
18/12:00pm 27.7 29.5 18.3 56 6.0 ENE 6 11 3 6 1015.2 1015.1 0.0
18/11:30am 27.6 29.1 18.9 59 5.6 N 9 13 5 7 1015.7 - 0.0
18/11:00am 26.7 29.5 18.9 62 5.0 WSW 2 9 1 5 1016.2 - 0.0
18/10:30am 25.5 27.6 19.3 68 4.0 WSW 7 11 4 6 1016.7 - 0.0
18/10:00am 25.1 27.3 19.5 71 3.6 W 7 15 4 8 1017.0 - 0.0
18/09:30am 24.6 27.1 20.3 77 2.8 WSW 7 13 4 7 1017.2 - 0.0
18/09:00am 24.5 28.3 21.0 81 2.3 WNW 2 6 1 3 1017.3 1017.2 0.2
18/08:30am 23.3 27.0 20.0 82 2.1 CALM 0 0 0 0 1017.2 - 0.2
18/08:00am 21.9 25.7 20.2 90 1.1 CALM 0 0 0 0 1017.0 - 0.2
18/07:30am 20.6 24.0 19.3 92 0.8 CALM 0 0 0 0 1016.9 - 0.2
18/07:00am 20.2 23.9 19.9 98 0.2 CALM 0 0 0 0 1016.9 - 0.2
18/06:46am 19.4 22.6 18.8 96 0.4 CALM 0 0 0 0 1016.8 - 0.2
18/06:30am 19.1 22.1 18.5 96 0.4 CALM 0 0 0 0 1016.7 - 0.2
18/06:00am 18.9 21.5 18.4 97 0.3 S 2 6 1 3 1016.6 1016.5 0.2
18/05:45am 19.1 22.2 18.6 97 0.3 CALM 0 0 0 0 1016.5 - 0.2
18/05:30am 18.9 21.8 18.3 96 0.4 CALM 0 0 0 0 1016.3 - 0.2
18/05:00am 19.4 22.6 18.8 96 0.4 CALM 0 0 0 0 1016.2 - 0.2
18/04:30am 19.3 22.5 18.8 97 0.3 CALM 0 0 0 0 1016.2 - 0.2
18/04:00am 19.5 22.8 19.0 97 0.3 CALM 0 0 0 0 1016.1 - 0.2
18/03:30am 19.6 22.9 19.0 96 0.4 CALM 0 0 0 0 1016.1 - 0.2
18/03:00am 20.0 23.3 19.2 95 0.5 CALM 0 6 0 3 1016.1 1016.0 0.2
18/02:30am 19.8 21.8 19.2 96 0.4 SW 7 9 4 5 1016.2 - 0.2
18/02:00am 20.1 23.6 19.6 97 0.3 CALM 0 0 0 0 1016.2 - 0.2
18/01:30am 20.1 23.6 19.6 97 0.3 CALM 0 0 0 0 1016.4 - 0.2
18/01:00am 19.7 22.2 19.1 96 0.4 ENE 4 7 2 4 1016.6 - 0.2
18/12:30am 20.6 24.2 19.8 95 0.5 CALM 0 0 0 0 1016.8 - 0.2
18/12:00am 20.7 24.3 19.8 95 0.6 CALM 0 6 0 3 1017.0 1016.9 0.2
 
Date/Time
EST
Temp
°C
App
Temp
°C
Dew
Point
Rel
Hum
%
Delta-T
°C
Wind Press
QNH
hPa
Press
MSL
hPa
Rain
since 9 am
mm
Dir
 
Spd
km/h
Gust
km/h
Spd
kts
Gust
kts
17/11:30pm 20.9 24.6 20.0 95 0.6 CALM 0 0 0 0 1017.0 - 0.2
17/11:00pm 21.3 25.0 19.9 92 0.9 CALM 0 6 0 3 1017.1 - 0.2
17/10:30pm 21.8 24.3 19.9 89 1.2 S 6 7 3 4 1017.2 - 0.2
17/10:00pm 21.6 24.5 19.9 90 1.1 E 4 7 2 4 1017.0 - 0.2
17/09:30pm 21.9 24.4 19.9 88 1.3 E 6 9 3 5 1017.0 - 0.2
17/09:00pm 21.6 25.3 20.0 91 1.0 CALM 0 0 0 0 1017.0 1016.9 0.2
17/08:30pm 22.1 24.6 19.8 87 1.5 NE 6 7 3 4 1016.9 - 0.2
17/08:00pm 22.4 24.8 19.7 85 1.7 N 6 7 3 4 1016.6 - 0.2
17/07:30pm 22.7 24.9 19.7 83 1.9 N 7 9 4 5 1016.3 - 0.2
17/07:00pm 23.1 25.0 19.7 81 2.2 N 9 11 5 6 1015.9 - 0.2
17/06:30pm 23.3 24.4 19.7 80 2.3 N 13 19 7 10 1015.1 - 0.2
17/06:00pm 23.6 25.2 19.9 80 2.4 N 11 15 6 8 1014.8 1014.7 0.2
17/05:30pm 23.8 25.2 19.6 77 2.7 N 11 15 6 8 1014.4 - 0.2
17/05:00pm 24.6 24.7 18.4 68 3.9 N 15 24 8 13 1014.2 - 0.2
17/04:30pm 26.9 28.3 17.9 57 5.7 NNE 7 15 4 8 1013.8 - 0.2
17/04:00pm 26.7 27.5 17.3 56 5.9 NE 9 13 5 7 1013.9 - 0.2
17/03:30pm 25.3 25.6 17.8 63 4.7 ENE 13 22 7 12 1013.7 - 0.2
17/03:00pm 24.0 23.7 18.3 70 3.6 SE 17 28 9 15 1014.2 1014.1 0.2
17/02:30pm 25.7 24.2 17.6 61 5.1 SSE 22 32 12 17 1014.1 - 0.0
17/02:00pm 28.9 29.2 16.9 48 7.5 NNW 11 17 6 9 1014.2 - 0.0
17/01:30pm 28.6 29.2 16.9 49 7.3 NNW 9 13 5 7 1014.4 - 0.0
17/01:00pm 28.6 29.7 17.9 52 6.8 N 9 17 5 9 1015.0 - 0.0
17/12:30pm 28.0 30.3 18.5 56 6.1 NE 4 9 2 5 1015.6 - 0.0
17/12:00pm 27.5 29.2 19.3 61 5.3 W 9 17 5 9 1016.1 1016.0 0.0
17/11:30am 26.8 28.8 18.7 61 5.2 NNW 6 13 3 7 1016.7 - 0.0
17/11:00am 26.4 28.7 19.8 67 4.3 W 7 11 4 6 1017.3 - 0.0
17/10:30am 25.6 28.8 20.4 73 3.4 WNW 4 7 2 4 1017.6 - 0.0
17/10:00am 24.4 26.1 19.4 73 3.2 NNW 9 11 5 6 1017.8 - 0.0
17/09:30am 24.9 27.8 20.6 77 2.8 N 6 7 3 4 1017.8 - 0.0
17/09:00am 24.0 27.3 21.4 85 1.7 ESE 6 7 3 4 1017.8 1017.7 4.8
17/08:30am 22.6 25.5 21.1 91 1.0 E 7 11 4 6 1017.8 - 4.8
17/08:22am 22.3 25.4 21.4 95 0.6 ESE 7 11 4 6 1017.7 - 4.8
17/08:03am 21.5 24.4 21.0 97 0.3 SE 7 11 4 6 1017.6 - 4.8
17/08:00am 21.3 23.8 21.0 98 0.2 SSE 9 11 5 6 1017.6 - 4.8
17/07:58am 21.4 24.2 20.9 97 0.3 SE 7 11 4 6 1017.6 - 4.8
17/07:49am 21.2 23.3 20.9 98 0.2 SSE 11 13 6 7 1017.5 - 4.8
17/07:30am 21.2 24.0 20.9 98 0.2 SSE 7 11 4 6 1017.3 - 4.8
17/07:26am 21.1 23.9 20.9 99 0.1 SE 7 11 4 6 1017.3 - 4.8
17/07:18am 21.1 23.9 20.9 99 0.1 SE 7 9 4 5 1017.2 - 4.8
17/07:00am 21.0 24.0 20.8 99 0.1 SSE 6 9 3 5 1017.0 - 4.8
17/06:45am 20.8 23.6 20.5 98 0.2 SSE 6 9 3 5 1016.8 - 4.8
17/06:30am 19.8 23.3 19.6 99 0.1 CALM 0 0 0 0 1016.7 - 4.8
17/06:28am 19.8 23.3 19.5 98 0.2 CALM 0 2 0 1 1016.7 - 4.8
17/06:18am 19.7 22.4 19.4 98 0.2 SSW 4 6 2 3 1016.7 - 4.8
17/06:00am 19.6 21.8 19.3 98 0.2 SW 6 7 3 4 1016.5 1016.4 4.8
17/05:56am 19.6 21.8 19.3 98 0.2 SW 6 7 3 4 1016.5 - 4.8
17/05:45am 19.9 22.3 19.6 98 0.2 SW 6 7 3 4 1016.3 - 4.8
17/05:37am 20.0 22.5 19.8 99 0.1 SW 6 7 3 4 1016.3 - 4.8
17/05:30am 20.1 23.0 19.9 99 0.1 WSW 4 6 2 3 1016.2 - 4.8
17/05:24am 20.1 23.0 19.9 99 0.1 WSW 4 6 2 3 1016.0 - 4.8
17/05:10am 20.1 22.6 19.8 98 0.2 WSW 6 7 3 4 1015.9 - 4.8
17/05:04am 19.9 22.3 19.6 98 0.2 SW 6 7 3 4 1015.9 - 4.8
17/04:30am 20.5 24.3 20.2 98 0.2 CALM 0 2 0 1 1015.6 - 4.8
17/04:00am 20.5 23.2 20.3 99 0.1 ESE 6 7 3 4 1015.3 - 4.8
17/03:30am 20.5 23.2 20.2 98 0.2 ESE 6 7 3 4 1015.2 - 4.8
17/03:22am 20.7 23.8 20.2 97 0.3 SE 4 7 2 4 1015.2 - 4.8
17/03:00am 20.5 24.2 20.0 97 0.3 CALM 0 0 0 0 1015.2 1015.1 4.8
17/02:30am 20.8 23.9 20.2 96 0.4 S 4 6 2 3 1015.2 - 4.8
17/02:12am 20.7 24.6 20.4 98 0.2 CALM 0 0 0 0 1015.2 - 4.8
17/02:00am 20.8 24.7 20.3 97 0.3 CALM 0 0 0 0 1015.3 - 4.8
17/01:51am 20.9 24.8 20.4 97 0.3 CALM 0 0 0 0 1015.2 - 4.8
17/01:30am 21.1 25.1 20.6 97 0.3 CALM 0 0 0 0 1015.3 - 4.8
17/01:00am 21.5 25.3 20.9 96 0.4 SSW 2 6 1 3 1015.6 - 4.8
17/12:30am 21.8 25.2 21.0 95 0.5 SSW 4 7 2 4 1015.7 - 4.8
17/12:00am 22.1 26.3 21.0 93 0.7 CALM 0 0 0 0 1015.9 1015.8 4.8
 
Date/Time
EST
Temp
°C
App
Temp
°C
Dew
Point
Rel
Hum
%
Delta-T
°C
Wind Press
QNH
hPa
Press
MSL
hPa
Rain
since 9 am
mm
Dir
 
Spd
km/h
Gust
km/h
Spd
kts
Gust
kts
16/11:30pm 22.0 25.5 21.1 95 0.6 WNW 4 7 2 4 1016.1 - 4.8
16/11:00pm 22.2 26.2 21.3 95 0.6 SSW 2 9 1 5 1015.9 - 4.8
16/10:30pm 22.3 24.9 21.2 93 0.7 S 9 13 5 7 1016.2 - 4.8
16/10:00pm 22.5 25.2 21.4 93 0.7 WSW 9 13 5 7 1015.8 - 4.8
16/09:30pm 22.5 25.5 21.3 93 0.8 E 7 9 4 5 1015.7 - 4.8
16/09:00pm 22.1 24.2 20.1 88 1.3 ENE 9 11 5 6 1015.4 1015.3 4.8
16/08:30pm 22.3 24.4 20.1 87 1.4 N 9 13 5 7 1015.1 - 4.8
16/08:00pm 22.5 26.2 20.7 89 1.2 NNE 2 6 1 3 1014.9 - 4.8
16/07:30pm 22.5 25.8 20.8 90 1.1 ENE 4 7 2 4 1014.8 - 4.8
16/07:00pm 22.7 25.1 20.9 89 1.2 NNE 9 13 5 7 1014.3 - 4.8
16/06:30pm 22.4 25.4 21.2 93 0.8 NE 7 11 4 6 1013.9 - 4.8
16/06:00pm 22.5 25.0 21.1 92 0.9 N 9 11 5 6 1013.6 1013.5 4.8
16/05:30pm 22.5 25.0 20.2 87 1.5 NW 7 11 4 6 1013.2 - 4.8
16/05:00pm 23.6 26.1 21.0 85 1.7 N 9 17 5 9 1012.8 - 4.8
16/04:39pm 23.8 24.7 20.9 84 1.9 E 17 22 9 12 1012.7 - 1.8
16/04:30pm 26.5 26.5 19.7 66 4.4 E 19 22 10 12 1012.7 - 0.0
16/03:30pm 28.2 28.5 18.7 56 6.1 N 15 20 8 11 1012.3 - 0.0
16/03:00pm 28.2 28.0 19.4 59 5.7 N 19 24 10 13 1012.6 - 0.0
16/02:00pm 28.6 29.6 17.7 51 6.9 NNW 9 13 5 7 1013.1 - 0.0
16/01:30pm 28.6 29.8 17.3 50 7.1 NW 7 13 4 7 1013.3 - 0.0
16/01:00pm 28.1 29.6 18.0 54 6.4 NNW 7 13 4 7 1013.8 - 0.0
16/12:30pm 26.7 28.2 17.6 57 5.7 ENE 6 7 3 4 1014.1 - 0.0

Other Formats:

Comma delimited format used in spreadsheet applications
http://www.bom.gov.au/fwo/IDQ60801/IDQ60801.94374.axf

JavaScript Object Notation format (JSON) in row-major order
http://www.bom.gov.au/fwo/IDQ60801/IDQ60801.94374.json